createdAt,value
2022-10-28T00:01:08.752Z,101992.81
2022-10-28T00:03:39.185Z,101986.91
2022-10-28T00:06:08.564Z,101989.66
2022-10-28T00:08:35.407Z,101993.19
2022-10-28T00:11:13.506Z,101995.81
2022-10-28T00:13:41.286Z,101997.59
2022-10-28T00:16:16.364Z,101999.47
2022-10-28T00:18:43.381Z,101990.91
2022-10-28T00:21:19.253Z,101987.53
2022-10-28T00:23:45.822Z,101982.53
2022-10-28T00:26:32.265Z,101976.56
2022-10-28T00:29:01.370Z,101965.50
2022-10-28T00:31:30.496Z,101978.38
2022-10-28T00:33:59.180Z,101968.97
2022-10-28T00:36:28.522Z,101971.59
2022-10-28T00:38:56.364Z,101968.22
2022-10-28T00:41:31.205Z,101970.78
2022-10-28T00:44:03.989Z,101972.47
2022-10-28T00:46:45.720Z,101968.22
2022-10-28T00:49:16.715Z,101963.06
2022-10-28T00:51:46.218Z,101964.03
2022-10-28T00:54:13.521Z,101957.22
2022-10-28T00:56:46.226Z,101946.94
2022-10-28T00:59:18.650Z,101948.72
2022-10-28T01:01:45.658Z,101946.19
2022-10-28T01:04:12.099Z,101943.66
2022-10-28T01:06:39.081Z,101942.00
2022-10-28T01:09:05.641Z,101936.94
2022-10-28T01:11:56.713Z,101937.00
2022-10-28T01:14:53.649Z,101934.47
2022-10-28T01:17:35.202Z,101934.47
2022-10-28T01:20:39.663Z,101948.25
2022-10-28T01:23:14.035Z,101930.28
2022-10-28T01:26:19.153Z,101935.50
2022-10-28T01:28:58.892Z,101942.41
2022-10-28T01:31:37.671Z,101942.50
2022-10-28T01:34:16.714Z,101926.25
2022-10-28T01:37:08.157Z,101927.97
2022-10-28T01:40:05.617Z,101925.50
2022-10-28T01:42:35.551Z,101925.56
2022-10-28T01:45:29.479Z,101920.56
2022-10-28T01:48:19.170Z,101924.97
2022-10-28T01:50:56.065Z,101926.69
2022-10-28T01:53:27.457Z,101927.56
2022-10-28T01:55:56.913Z,101920.72
2022-10-28T01:58:28.529Z,101913.16
2022-10-28T02:00:56.533Z,101915.00
2022-10-28T02:03:23.131Z,101911.56
2022-10-28T02:05:53.429Z,101903.91
2022-10-28T02:08:19.986Z,101910.81
2022-10-28T02:11:01.147Z,101912.59
2022-10-28T02:13:39.367Z,101897.22
2022-10-28T02:16:05.781Z,101892.06
2022-10-28T02:18:53.341Z,101901.47
2022-10-28T02:21:50.211Z,101905.00
2022-10-28T02:24:32.932Z,101898.31
2022-10-28T02:27:13.775Z,101894.91
2022-10-28T02:29:55.010Z,101894.13
2022-10-28T02:32:27.261Z,101897.59
2022-10-28T02:34:56.755Z,101900.22
2022-10-28T02:37:33.541Z,101896.84
2022-10-28T02:40:08.419Z,101892.66
2022-10-28T02:42:44.649Z,101879.84
2022-10-28T02:45:18.975Z,101883.25
2022-10-28T02:47:51.805Z,101884.13
2022-10-28T02:50:22.087Z,101885.00
2022-10-28T02:52:51.519Z,101881.59
2022-10-28T02:55:20.705Z,101885.88
2022-10-28T02:57:49.162Z,101889.31
2022-10-28T03:00:19.559Z,101892.84
2022-10-28T03:02:46.300Z,101887.75
2022-10-28T03:05:13.770Z,101879.19
2022-10-28T03:07:40.901Z,101880.06
2022-10-28T03:10:07.778Z,101879.28
2022-10-28T03:12:34.144Z,101879.28
2022-10-28T03:15:01.648Z,101875.03
2022-10-28T03:17:28.205Z,101881.06
2022-10-28T03:19:54.745Z,101882.75
2022-10-28T03:22:21.060Z,101875.91
2022-10-28T03:24:47.437Z,101878.50
2022-10-28T03:27:13.762Z,101878.47
2022-10-28T03:29:44.820Z,101885.31
2022-10-28T03:32:12.505Z,101881.88
2022-10-28T03:34:38.894Z,101882.78
2022-10-28T03:37:05.247Z,101873.41
2022-10-28T03:39:31.610Z,101876.00
2022-10-28T03:41:57.994Z,101874.34
2022-10-28T03:44:24.354Z,101866.63
2022-10-28T03:46:50.706Z,101859.84
2022-10-28T03:49:18.073Z,101858.09
2022-10-28T03:51:44.410Z,101852.09
2022-10-28T03:54:10.760Z,101852.16
2022-10-28T03:56:39.509Z,101848.75
2022-10-28T03:59:09.770Z,101850.47
2022-10-28T04:01:36.501Z,101839.41
2022-10-28T04:04:03.302Z,101844.59
2022-10-28T04:06:30.093Z,101841.19
2022-10-28T04:08:56.513Z,101845.38
2022-10-28T04:11:23.036Z,101850.41
2022-10-28T04:13:49.399Z,101846.00
2022-10-28T04:16:15.732Z,101844.09
2022-10-28T04:18:42.077Z,101844.75
2022-10-28T04:21:08.431Z,101843.78
2022-10-28T04:23:34.797Z,101844.56
2022-10-28T04:26:01.157Z,101849.63
2022-10-28T04:28:27.733Z,101858.16
2022-10-28T04:30:54.102Z,101857.34
2022-10-28T04:33:20.680Z,101860.00
2022-10-28T04:35:47.071Z,101866.03
2022-10-28T04:38:14.225Z,101854.19
2022-10-28T04:40:40.888Z,101855.97
2022-10-28T04:43:09.718Z,101861.16
2022-10-28T04:45:37.373Z,101847.53
2022-10-28T04:48:03.949Z,101859.41
2022-10-28T04:50:30.460Z,101844.91
2022-10-28T04:52:56.867Z,101853.50
2022-10-28T04:55:23.269Z,101844.94
2022-10-28T04:58:00.436Z,101839.72
2022-10-28T05:00:28.723Z,101834.50
2022-10-28T05:02:55.307Z,101831.03
2022-10-28T05:05:22.328Z,101836.13
2022-10-28T05:07:48.920Z,101834.31
2022-10-28T05:10:16.296Z,101843.72
2022-10-28T05:12:43.203Z,101847.22
2022-10-28T05:15:11.203Z,101845.44
2022-10-28T05:17:41.401Z,101838.53
2022-10-28T05:20:08.724Z,101834.22
2022-10-28T05:22:35.105Z,101826.44
2022-10-28T05:25:01.678Z,101821.22
2022-10-28T05:27:28.060Z,101815.09
2022-10-28T05:29:54.605Z,101823.50
2022-10-28T05:32:20.939Z,101825.09
2022-10-28T05:34:47.269Z,101822.41
2022-10-28T05:37:13.599Z,101827.50
2022-10-28T05:39:39.922Z,101823.19
2022-10-28T05:42:06.256Z,101830.03
2022-10-28T05:44:32.585Z,101816.31
2022-10-28T05:46:59.114Z,101824.84
2022-10-28T05:49:26.570Z,101824.03
2022-10-28T05:51:53.611Z,101825.72
2022-10-28T05:54:21.008Z,101825.72
2022-10-28T05:56:47.407Z,101820.66
2022-10-28T05:59:15.823Z,101818.13
2022-10-28T08:12:47.324Z,101868.16
2022-10-28T08:46:56.103Z,101868.03
2022-10-28T08:49:24.108Z,101868.78
2022-10-28T08:51:58.285Z,101875.56
2022-10-28T08:54:33.971Z,101873.69
2022-10-28T08:57:02.792Z,101863.19
2022-10-28T08:59:39.366Z,101856.00
2022-10-28T09:02:18.474Z,101853.16
2022-10-28T09:04:46.668Z,101857.22
2022-10-28T09:07:24.240Z,101862.16
2022-10-28T09:09:53.463Z,101861.84
2022-10-28T09:12:23.180Z,101860.44
2022-10-28T09:15:14.238Z,101851.34
2022-10-28T09:18:04.140Z,101862.13
2022-10-28T09:21:01.429Z,101858.44
2022-10-28T09:23:33.696Z,101861.66
2022-10-28T09:26:29.334Z,101856.31
2022-10-28T09:29:14.712Z,101857.78
2022-10-28T09:31:52.360Z,101851.38
2022-10-28T09:34:56.465Z,101848.28
2022-10-28T09:37:29.237Z,101853.38
2022-10-28T09:40:02.614Z,101867.22
2022-10-28T09:42:32.637Z,101868.00
2022-10-28T09:45:12.003Z,101868.13
2022-10-28T09:47:50.704Z,101853.59
2022-10-28T09:50:20.789Z,101862.22
2022-10-28T09:53:12.477Z,101865.53
2022-10-28T09:55:38.972Z,101855.22
2022-10-28T09:58:05.597Z,101850.97
2022-10-28T10:00:32.499Z,101850.44
2022-10-28T10:02:59.263Z,101860.16
2022-10-28T10:05:26.663Z,101864.81
2022-10-28T10:07:57.676Z,101863.59
2022-10-28T10:10:47.880Z,101862.50
2022-10-28T10:13:19.968Z,101864.78
2022-10-28T10:15:59.796Z,101858.34
2022-10-28T10:18:30.237Z,101866.53
2022-10-28T10:21:00.085Z,101850.44
2022-10-28T10:23:31.315Z,101853.13
2022-10-28T10:26:11.284Z,101844.72
2022-10-28T10:28:43.975Z,101832.34
2022-10-28T10:31:19.868Z,101845.34
2022-10-28T10:33:50.924Z,101840.69
2022-10-28T10:36:23.595Z,101836.00
2022-10-28T10:38:57.931Z,101841.34
2022-10-28T10:41:38.818Z,101844.09
2022-10-28T10:44:30.431Z,101828.72
2022-10-28T10:47:04.902Z,101829.06
2022-10-28T10:49:33.634Z,101816.81
2022-10-28T10:52:01.230Z,101812.38
2022-10-28T10:54:31.048Z,101819.19
2022-10-28T10:57:16.737Z,101814.59
2022-10-28T10:59:53.356Z,101832.31
2022-10-28T11:02:35.024Z,101834.41
2022-10-28T11:05:10.213Z,101835.75
2022-10-28T11:07:45.047Z,101838.13
2022-10-28T11:10:32.364Z,101829.47
2022-10-28T11:13:04.277Z,101825.94
2022-10-28T11:15:32.477Z,101824.34
2022-10-28T11:18:21.309Z,101826.88
2022-10-28T11:20:58.429Z,101821.50
2022-10-28T11:23:51.126Z,101812.88
2022-10-28T11:26:19.631Z,101820.72
2022-10-28T11:28:55.504Z,101823.19
2022-10-28T11:31:40.347Z,101831.59
2022-10-28T11:34:34.475Z,101819.31
2022-10-28T11:37:35.812Z,101821.69
2022-10-28T11:40:13.905Z,101827.53
2022-10-28T11:43:17.212Z,101830.38
2022-10-28T11:46:02.283Z,101826.78
2022-10-28T11:48:44.315Z,101842.78
2022-10-28T11:51:34.036Z,101839.50
2022-10-28T11:54:13.094Z,101830.44
2022-10-28T11:56:54.619Z,101824.22
2022-10-28T11:59:35.016Z,101818.09
2022-10-28T12:02:43.467Z,101838.84
2022-10-28T12:05:18.618Z,101835.97
2022-10-28T12:08:15.592Z,101832.00
2022-10-28T12:10:56.571Z,101834.97
2022-10-28T12:13:32.169Z,101833.97
2022-10-28T12:16:09.896Z,101856.59
2022-10-28T12:18:53.658Z,101837.50
2022-10-28T12:21:41.541Z,101856.59
2022-10-28T12:24:15.293Z,101834.72
2022-10-28T12:26:46.461Z,101835.56
2022-10-28T12:29:37.222Z,101845.41
2022-10-28T12:32:05.926Z,101845.50
2022-10-28T12:34:48.784Z,101851.38
2022-10-28T12:37:24.141Z,101856.84
2022-10-28T12:40:08.048Z,101844.91
2022-10-28T12:42:39.667Z,101840.81
2022-10-28T12:45:13.179Z,101853.44
2022-10-28T12:47:46.683Z,101843.47
2022-10-28T12:50:39.211Z,101850.59
2022-10-28T12:53:05.569Z,101844.88
2022-10-28T12:55:44.246Z,101855.38
2022-10-28T12:58:17.447Z,101863.19
2022-10-28T13:00:49.092Z,101868.38
2022-10-28T13:03:16.102Z,101872.69
2022-10-28T13:06:10.870Z,101878.31
2022-10-28T13:08:52.580Z,101899.31
2022-10-28T13:11:50.940Z,101902.06
2022-10-28T13:14:39.054Z,101895.34
2022-10-28T13:17:27.627Z,101891.22
2022-10-28T13:20:16.620Z,101887.22
2022-10-28T13:22:53.646Z,101897.63
2022-10-28T13:25:45.660Z,101897.63
2022-10-28T13:28:17.873Z,101902.06
2022-10-28T13:30:56.878Z,101897.94
2022-10-28T13:33:26.246Z,101903.13
2022-10-28T13:35:55.261Z,101897.84
2022-10-28T13:38:26.353Z,101907.16
2022-10-28T13:43:48.811Z,101914.13
2022-10-28T13:46:54.108Z,101912.47
2022-10-28T13:49:30.520Z,101908.69
2022-10-28T13:52:07.420Z,101906.34
2022-10-28T13:54:42.811Z,101907.56
2022-10-28T13:57:14.006Z,101899.84
2022-10-28T13:59:57.333Z,101915.31
2022-10-28T14:02:37.392Z,101925.78
2022-10-28T14:05:09.617Z,101932.03
2022-10-28T14:07:40.768Z,101937.44
2022-10-28T14:10:21.317Z,101949.69
2022-10-28T14:13:19.028Z,101947.03
2022-10-28T14:15:49.510Z,101947.75
2022-10-28T14:21:05.273Z,101962.69
2022-10-28T14:23:36.372Z,101954.13
2022-10-28T14:26:05.782Z,101953.31
2022-10-28T14:28:32.215Z,101932.50
2022-10-28T14:31:14.516Z,101945.56
2022-10-28T14:33:44.043Z,101942.13
2022-10-28T14:36:19.696Z,101942.22
2022-10-28T14:38:58.379Z,101937.34
2022-10-28T14:41:51.221Z,101938.66
2022-10-28T14:44:47.508Z,101937.97
2022-10-28T14:47:37.630Z,101953.66
2022-10-28T14:50:16.701Z,101967.97
2022-10-28T14:52:44.273Z,101962.06
2022-10-28T14:55:24.006Z,101971.91
2022-10-28T14:57:50.681Z,101970.63
2022-10-28T15:00:20.076Z,101985.69
2022-10-28T15:02:47.156Z,101974.69
2022-10-28T15:05:17.154Z,101972.22
2022-10-28T15:07:46.833Z,101971.53
2022-10-28T15:10:25.864Z,101973.38
2022-10-28T15:12:54.401Z,101978.72
2022-10-28T15:15:23.951Z,101985.81
2022-10-28T15:17:51.192Z,101985.97
2022-10-28T15:20:23.577Z,101978.38
2022-10-28T15:22:50.996Z,101976.84
2022-10-28T15:25:20.404Z,101988.31
2022-10-28T15:27:50.851Z,101995.31
2022-10-28T15:30:18.828Z,102004.09
2022-10-28T15:32:45.285Z,102005.16
2022-10-28T15:35:26.844Z,102011.50
2022-10-28T15:37:54.672Z,102016.06
2022-10-28T15:40:34.504Z,102015.34
2022-10-28T15:43:02.653Z,102017.19
2022-10-28T15:45:39.715Z,102005.13
2022-10-28T15:48:14.668Z,102013.97
2022-10-28T15:50:41.474Z,102007.22
2022-10-28T15:53:10.786Z,102007.41
2022-10-28T15:56:02.799Z,102017.84
2022-10-28T15:58:35.726Z,102020.69
2022-10-28T16:01:02.452Z,102024.38
2022-10-28T16:03:47.411Z,102015.91
2022-10-28T16:06:39.975Z,102032.44
2022-10-28T16:09:19.503Z,102029.13
2022-10-28T16:11:51.276Z,102031.81
2022-10-28T16:14:32.375Z,102032.84
2022-10-28T16:17:23.621Z,102038.22
2022-10-28T16:20:18.344Z,102043.56
2022-10-28T16:22:46.465Z,102044.78
2022-10-28T16:25:18.866Z,102058.03
2022-10-28T16:27:45.307Z,102061.66
2022-10-28T16:30:11.991Z,102074.84
2022-10-28T16:32:49.930Z,102082.69
2022-10-28T16:35:21.554Z,102076.69
2022-10-28T16:37:55.584Z,102084.63
2022-10-28T16:43:16.060Z,102101.97
2022-10-28T16:45:42.472Z,102089.00
2022-10-28T16:48:12.665Z,102095.06
2022-10-28T16:50:41.168Z,102091.59
2022-10-28T16:53:11.744Z,102096.88
2022-10-28T16:55:38.311Z,102104.63
2022-10-28T16:58:04.969Z,102105.47
2022-10-28T17:00:31.315Z,102109.00
2022-10-28T17:02:57.806Z,102110.72
2022-10-28T17:05:24.382Z,102121.16
2022-10-28T17:07:51.128Z,102110.03
2022-10-28T17:10:17.894Z,102107.44
2022-10-28T17:12:44.328Z,102105.84
2022-10-28T17:15:10.895Z,102102.56
2022-10-28T17:17:37.525Z,102104.50
2022-10-28T17:20:04.399Z,102108.94
2022-10-28T17:22:31.130Z,102120.31
2022-10-28T17:24:57.533Z,102113.56
2022-10-28T17:27:24.080Z,102124.03
2022-10-28T17:29:50.561Z,102131.19
2022-10-28T17:32:17.050Z,102129.66
2022-10-28T17:34:43.499Z,102133.19
2022-10-28T17:37:10.363Z,102144.66
2022-10-28T17:39:37.771Z,102150.91
2022-10-28T17:42:04.277Z,102155.44
2022-10-28T17:44:30.862Z,102151.44
2022-10-28T17:46:57.467Z,102155.94
2022-10-28T17:49:23.885Z,102163.00
2022-10-28T17:51:51.117Z,102167.44
2022-10-28T17:54:17.555Z,102177.06
2022-10-28T17:56:45.261Z,102174.59
2022-10-28T17:59:11.686Z,102174.66
2022-10-28T18:01:38.235Z,102174.06
2022-10-28T18:04:06.057Z,102185.41
2022-10-28T18:06:32.528Z,102185.47
2022-10-28T18:08:58.864Z,102177.78
2022-10-28T18:11:27.250Z,102176.94
2022-10-28T18:13:55.840Z,102180.38
2022-10-28T18:16:25.269Z,102183.91
2022-10-28T18:18:53.229Z,102198.69
2022-10-28T18:21:22.694Z,102189.28
2022-10-28T18:23:53.135Z,102198.06
2022-10-28T18:26:20.714Z,102206.00
2022-10-28T18:28:48.818Z,102200.94
2022-10-28T18:31:20.185Z,102214.81
2022-10-28T18:33:47.259Z,102226.09
2022-10-28T18:36:19.762Z,102230.50
2022-10-28T18:38:46.464Z,102237.47
2022-10-28T18:41:21.433Z,102241.81
2022-10-28T18:44:00.682Z,102235.81
2022-10-28T18:46:29.131Z,102231.66
2022-10-28T18:48:56.297Z,102216.25
2022-10-28T18:51:23.289Z,102209.47
2022-10-28T18:53:50.408Z,102211.31
2022-10-28T18:56:22.167Z,102210.56
2022-10-28T18:58:51.340Z,102216.69
2022-10-28T19:01:23.012Z,102221.25
2022-10-28T19:03:54.365Z,102230.19
2022-10-28T19:06:21.921Z,102231.19
2022-10-28T19:08:56.159Z,102234.81
2022-10-28T19:11:30.099Z,102244.41
2022-10-28T19:14:02.803Z,102238.56
2022-10-28T19:16:31.180Z,102238.75
2022-10-28T19:18:58.652Z,102241.44
2022-10-28T19:21:25.787Z,102243.22
2022-10-28T19:23:52.477Z,102241.72
2022-10-28T19:26:19.506Z,102248.75
2022-10-28T19:28:47.956Z,102237.84
2022-10-28T19:31:16.778Z,102246.56
2022-10-28T19:33:44.415Z,102251.88
2022-10-28T19:36:18.676Z,102252.91
2022-10-28T19:38:46.623Z,102250.44
2022-10-28T19:41:18.253Z,102257.53
2022-10-28T19:43:45.469Z,102260.16
2022-10-28T19:46:18.848Z,102260.19
2022-10-28T19:48:47.392Z,102256.84
2022-10-28T19:51:15.979Z,102265.53
2022-10-28T19:53:51.253Z,102275.00
2022-10-28T19:56:19.450Z,102280.25
2022-10-28T19:58:47.189Z,102288.94
2022-10-28T20:01:14.361Z,102283.03
2022-10-28T20:03:45.001Z,102273.66
2022-10-28T20:06:14.919Z,102272.84
2022-10-28T20:08:49.492Z,102292.69
2022-10-28T20:11:21.338Z,102296.25
2022-10-28T20:13:53.032Z,102291.19
2022-10-28T20:16:19.544Z,102289.63
2022-10-28T20:18:45.981Z,102297.44
2022-10-28T20:21:17.276Z,102304.38
2022-10-28T20:23:45.853Z,102307.03
2022-10-28T20:26:13.278Z,102313.06
2022-10-28T20:28:40.035Z,102312.28
2022-10-28T20:31:15.146Z,102307.31
2022-10-28T20:33:43.519Z,102309.28
2022-10-28T20:36:40.746Z,102311.13
2022-10-28T20:39:10.297Z,102320.59
2022-10-28T20:41:38.554Z,102321.56
2022-10-28T20:44:06.015Z,102322.44
2022-10-28T20:46:33.289Z,102323.38
2022-10-28T20:49:00.784Z,102322.59
2022-10-28T20:51:29.304Z,102332.13
2022-10-28T20:53:56.004Z,102326.22
2022-10-28T20:56:28.117Z,102336.69
2022-10-28T20:58:55.879Z,102331.69
2022-10-28T21:01:24.970Z,102336.13
2022-10-28T21:04:00.376Z,102327.59
2022-10-28T21:06:27.969Z,102331.97
2022-10-28T21:08:55.151Z,102326.00
2022-10-28T21:11:23.419Z,102325.19
2022-10-28T21:13:54.488Z,102327.03
2022-10-28T21:16:22.129Z,102336.59
2022-10-28T21:18:50.009Z,102347.09
2022-10-28T21:21:16.946Z,102342.09
2022-10-28T21:23:43.760Z,102333.56
2022-10-28T21:26:11.866Z,102335.31
2022-10-28T21:28:41.300Z,102332.00
2022-10-28T21:31:12.925Z,102333.84
2022-10-28T21:33:40.927Z,102346.88
2022-10-28T21:36:13.819Z,102341.00
2022-10-28T21:38:40.358Z,102347.13
2022-10-28T21:41:12.154Z,102339.41
2022-10-28T21:43:41.059Z,102341.19
2022-10-28T21:46:08.260Z,102336.13
2022-10-28T21:48:35.856Z,102338.72
2022-10-28T21:51:06.330Z,102332.75
2022-10-28T21:53:36.831Z,102331.09
2022-10-28T21:56:13.808Z,102335.41
2022-10-28T21:58:43.014Z,102344.06
2022-10-28T22:01:15.380Z,102337.28
2022-10-28T22:03:42.175Z,102345.88
2022-10-28T22:06:09.170Z,102344.22
2022-10-28T22:08:35.760Z,102345.13
2022-10-28T22:11:07.571Z,102340.94
2022-10-28T22:13:34.481Z,102341.88
2022-10-28T22:16:03.335Z,102349.69
2022-10-28T22:18:30.660Z,102351.44
2022-10-28T22:20:57.294Z,102357.53
2022-10-28T22:23:23.652Z,102361.06
2022-10-28T22:25:50.240Z,102363.75
2022-10-28T22:28:16.579Z,102367.19
2022-10-28T22:30:42.920Z,102370.63
2022-10-28T22:33:09.284Z,102368.97
2022-10-28T22:35:35.661Z,102375.84
2022-10-28T22:38:02.303Z,102372.47
2022-10-28T22:40:29.399Z,102371.56
2022-10-28T22:42:55.804Z,102369.88
2022-10-28T22:45:22.170Z,102377.59
2022-10-28T22:47:49.373Z,102377.59
2022-10-28T22:50:15.856Z,102381.88
2022-10-28T22:52:42.306Z,102377.72
2022-10-28T22:55:09.119Z,102380.41
2022-10-28T22:57:35.761Z,102377.88
2022-10-28T23:00:02.237Z,102381.28
2022-10-28T23:02:30.669Z,102377.03
2022-10-28T23:04:57.132Z,102378.84
2022-10-28T23:07:23.752Z,102378.84
2022-10-28T23:09:50.076Z,102371.13
2022-10-28T23:12:16.426Z,102366.84
2022-10-28T23:14:46.923Z,102373.72
2022-10-28T23:17:13.564Z,102374.59
2022-10-28T23:19:39.890Z,102379.72
2022-10-28T23:22:06.257Z,102378.91
2022-10-28T23:24:32.634Z,102366.94
2022-10-28T23:27:01.841Z,102361.81
2022-10-28T23:29:28.199Z,102360.97
2022-10-28T23:31:54.639Z,102350.69
2022-10-28T23:34:21.084Z,102368.69
2022-10-28T23:36:53.819Z,102368.78
2022-10-28T23:39:21.291Z,102362.84
2022-10-28T23:41:48.016Z,102361.16
2022-10-28T23:44:15.001Z,102376.56
2022-10-28T23:46:41.676Z,102374.00
2022-10-28T23:49:08.012Z,102372.34
2022-10-28T23:51:34.363Z,102377.56
2022-10-28T23:54:00.802Z,102381.03
2022-10-28T23:56:27.352Z,102387.03
2022-10-28T23:58:53.690Z,102393.09
